Terminal Aerodrome Forecast
Issued by NWS Spokane, WA

Home | Current Version | Previous Version | Text Only | Print | Product List | Glossary On
Versions: 1 2 3 4 5 6 7 8 9 10 11 12
000
FTUS46 KOTX 171720
TAFLWS
TAF
KLWS 171720Z 1718/1818 04004KT P6SM SCT120 SCT200
     FM171900 12004KT P6SM SCT200
     FM172000 27014G28KT P6SM BKN150
     FM180300 24007KT P6SM SCT150
     FM180700 24003KT P6SM BKN250=

USA.gov is the U.S. government's official web portal to all federal, state and local government web resources and services.